Πλησιέστερες Αναφορές METAR

 

LGTS - Thessaloniki/Makedonia-Elev 7m
Απόσταση από σταθμό: Ν 13km
Ενημερώθηκε: 31/03/2020 19:20
Διάσπαρτα Νέφη
Διάσπαρτα Νέφη
 Ανεμοι από ΝΝΑ
Ανεμος: ΝΝΑ 17 km/h
Θερμοκρασία: 15°C
Σημείο Δρόσου: 8°C
Υγρασία: 63%
Βαρόμετρο: 1012 hPa
Νέφωση: Διάσπαρτα Νέφη
Ορατότητα: 10 km
Λεπτομέρειες Νεφών: Διάσπαρτα Νέφη 914 m
2020/03/31 16:20 LGTS 311620Z 16009KT 9999 FEW030 15/08 Q1012 NOSIG
LGAV - Athens/Elef. Venizelos-Elev 94m
Απόσταση από σταθμό: ΝΝΑ 312km
Ενημερώθηκε: 31/03/2020 19:20
Διάσπαρτα Νέφη
Διάσπαρτα Νέφη
 Ανεμοι από ΑΒΑ
Ανεμος: ΑΒΑ 22 km/h
Θερμοκρασία: 14°C
Σημείο Δρόσου: 9°C
Υγρασία: 72%
Βαρόμετρο: 1011 hPa
Νέφωση: Διάσπαρτα Νέφη
Ορατότητα: 10 km
Λεπτομέρειες Νεφών: Διάσπαρτα Νέφη 914 m
2020/03/31 16:20 LGAV 311620Z 06012KT 9999 FEW030 14/09 Q1011 NOSIG
 
LGAL - Alexandroupolis-Elev 3m
Απόσταση από σταθμό: Α 251km
Ενημερώθηκε: 31/03/2020 19:20
Διάσπαρτα Νέφη
Διάσπαρτα Νέφη
 Ανεμοι από ΒΑ
Ανεμος: ΒΑ 30 km/h
Θερμοκρασία: 12°C
Σημείο Δρόσου: 4°C
Υγρασία: 58%
Βαρόμετρο: 1014 hPa
Νέφωση: Διάσπαρτα Νέφη
Ορατότητα: 10 km
Λεπτομέρειες Νεφών: Διάσπαρτα Νέφη 610 m
2020/03/31 16:20 LGAL 311620Z 05016KT 9999 FEW020 12/04 Q1014
LGKV - Kavala/Crysoupolis-Elev 5m
Απόσταση από σταθμό: ΑΒΑ 144km
Ενημερώθηκε: 31/03/2020 19:20
Μερικώς νεφελώδης
Μερικώς νεφελώδης
 Ανεμοι από ΑΒΑ
Ανεμος: ΑΒΑ 11 km/h
Θερμοκρασία: 14°C
Σημείο Δρόσου: 8°C
Υγρασία: 67%
Βαρόμετρο: 1013 hPa
Νέφωση: Μερικώς νεφελώδης
Ορατότητα: 10 km
Λεπτομέρειες Νεφών: Διάσπαρτα Νέφη 762 m
Μερικώς νεφελώδης 2438 m
2020/03/31 16:20 LGKV 311620Z 06006KT 9999 FEW025 SCT080 14/08 Q1013
 
LGSK - Skiathos Island-Elev 15m
Απόσταση από σταθμό: ΝΝΑ 168km
Ενημερώθηκε: 31/03/2020 15:50
ΜΗ Ενημερωμένο METAR!
Μερικώς νεφελώδης
Μερικώς νεφελώδης
 Ανεμοι από Β
Ανεμος: Β 19 km/h
Θερμοκρασία: 16°C
Σημείο Δρόσου: 7°C
Υγρασία: 55%
Βαρόμετρο: 1012 hPa
Νέφωση: Μερικώς νεφελώδης
Ορατότητα: 10 km
Λεπτομέρειες Νεφών: Μερικώς νεφελώδης 762 m
2020/03/31 12:50 LGSK 311250Z 36010KT 9999 SCT025 16/07 Q1012
LGLM - Limnos Island-Elev 5m
Απόσταση από σταθμό: ΑΝΑ 210km
Ενημερώθηκε: 31/03/2020 19:20
Αίθριος
Αίθριος
 Ανεμοι από ΑΒΑ
Ανεμος: ΑΒΑ 24 km/h
Θερμοκρασία: 12°C
Σημείο Δρόσου: 8°C
Υγρασία: 77%
Βαρόμετρο: 1013 hPa
Περίληψη: Αίθριος
Ορατότητα: πάνω από 10 km
2020/03/31 16:20 LGLM 311620Z 07013KT CAVOK 12/08 Q1013
 
LGMT - Mitilini Island-Elev 17m
Απόσταση από σταθμό: ΑΝΑ 358km
Ενημερώθηκε: 31/03/2020 19:20
Διάσπαρτα Νέφη
Διάσπαρτα Νέφη
 Ανεμοι από Α
Ανεμος: Α 19 km/h
Θερμοκρασία: 15°C
Σημείο Δρόσου: 8°C
Υγρασία: 63%
Βαρόμετρο: 1010 hPa
Νέφωση: Διάσπαρτα Νέφη
Ορατότητα: 10 km
Λεπτομέρειες Νεφών: Διάσπαρτα Νέφη 762 m
2020/03/31 16:20 LGMT 311620Z 09010KT 9999 FEW025 15/08 Q1010
LGSY - Skiros Island-Elev 15m
Απόσταση από σταθμό: ΝΑ 227km
Ενημερώθηκε: 31/03/2020 18:50
Μερικώς νεφελώδης
Μερικώς νεφελώδης
 Ανεμοι από ΒΒΑ
Ανεμος: ΒΒΑ 22 km/h
Θερμοκρασία: 13°C
Σημείο Δρόσου: 9°C
Υγρασία: 77%
Βαρόμετρο: 1012 hPa
Νέφωση: Μερικώς νεφελώδης
Ορατότητα: 10 km
Λεπτομέρειες Νεφών: Διάσπαρτα Νέφη 610 m
Μερικώς νεφελώδης 762 m
2020/03/31 15:50 LGSY 311550Z 03012KT 9999 FEW020 SCT025 13/09 Q1012 RMK FEW180 BLU
 
LGKZ - Kozani-Elev 628m
Απόσταση από σταθμό: ΔΝΔ 102km
Ενημερώθηκε: 31/03/2020 19:20
Ασθενής βροχή
Ασθενής βροχή
 Ανεμοι από Ν
Ανεμος: Ν 15 km/h
Θερμοκρασία: 11°C
Σημείο Δρόσου: 3°C
Υγρασία: 58%
Βαρόμετρο: 1013 hPa
Περίληψη: Ασθενής βροχή
2020/03/31 16:20 LGKZ 311620Z AUTO 18008KT 140V200 //// -RA ////// 11/03 Q1013 RE//
LGIO - Ioannina-Elev 476m
Απόσταση από σταθμό: ΔΝΔ 209km
Ενημερώθηκε: 31/03/2020 19:20

 Ανεμοι από μεταβλητός
Ανεμος: μεταβλητός 6 km/h
Θερμοκρασία: 14°C
Σημείο Δρόσου: 4°C
Υγρασία: 51%
Βαρόμετρο: 1012 hPa
2020/03/31 16:20 LGIO 311620Z AUTO VRB03KT //// // ////// 14/04 Q1012 RE//
 
LGZA - Zakinthos-Elev 3m
Απόσταση από σταθμό: ΝΝΔ 367km
Ενημερώθηκε: 31/03/2020 12:50
ΜΗ Ενημερωμένο METAR!
Αίθριος
Αίθριος
 Ανεμοι από ΒΒΔ
Ανεμος: ΒΒΔ 11 km/h
Θερμοκρασία: 19°C
Σημείο Δρόσου: 7°C
Υγρασία: 46%
Βαρόμετρο: 1012 hPa
Περίληψη: Αίθριος
Ορατότητα: πάνω από 10 km
2020/03/31 09:50 LGZA 310950Z 33006KT CAVOK 19/07 Q1012
LGKR - Corfu Island-Elev 2m
Απόσταση από σταθμό: ΔΝΔ 282km
Ενημερώθηκε: 31/03/2020 19:20
Αίθριος
Αίθριος
 Ανεμοι από ΒΔ
Ανεμος: ΒΔ 13 km/h
Θερμοκρασία: 18°C
Σημείο Δρόσου: 10°C
Υγρασία: 60%
Βαρόμετρο: 1011 hPa
Περίληψη: Αίθριος
Ορατότητα: πάνω από 10 km
2020/03/31 16:20 LGKR 311620Z 32007KT CAVOK 18/10 Q1011 NOSIG
 
LGSO - Syros Island-Elev 72m
Απόσταση από σταθμό: ΝΝΑ 397km
Ενημερώθηκε: 31/03/2020 19:20

 Ανεμοι από Β
Ανεμος: Β 19 km/h
Θερμοκρασία: 15°C
Σημείο Δρόσου: 8°C
Υγρασία: 63%
Βαρόμετρο: 1010 hPa
2020/03/31 16:20 LGSO 311620Z AUTO 35010KT //// // ////// 15/08 Q1010 RE//
LGMK - Mikonos Island-Elev 123m
Απόσταση από σταθμό: ΝΝΑ 412km
Ενημερώθηκε: 31/03/2020 15:20
ΜΗ Ενημερωμένο METAR!
Διάσπαρτα Νέφη
Διάσπαρτα Νέφη
 Ανεμοι από ΒΒΔ
Ανεμος: ΒΒΔ 37 km/h
Θερμοκρασία: 18°C
Σημείο Δρόσου: 10°C
Υγρασία: 60%
Βαρόμετρο: 1009 hPa
Νέφωση: Διάσπαρτα Νέφη
Ορατότητα: 10 km
Λεπτομέρειες Νεφών: Διάσπαρτα Νέφη 427 m
2020/03/31 12:20 LGMK 311220Z 34020KT 9999 FEW014 18/10 Q1009
 
LGSR - Santorini Island-Elev 40m
Απόσταση από σταθμό: ΝΝΑ 520km
Ενημερώθηκε: 31/03/2020 13:50
ΜΗ Ενημερωμένο METAR!
Μερικώς νεφελώδης
Μερικώς νεφελώδης
 Ανεμοι από Β
Ανεμος: Β 24 km/h
Θερμοκρασία: 17°C
Σημείο Δρόσου: 12°C
Υγρασία: 73%
Βαρόμετρο: 1009 hPa
Νέφωση: Μερικώς νεφελώδης
Ορατότητα: 10 km
Λεπτομέρειες Νεφών: Μερικώς νεφελώδης 762 m
2020/03/31 10:50 LGSR 311050Z 36013KT 9999 SCT025 17/12 Q1009
LGKL - Kalamata-Elev 8m
Απόσταση από σταθμό: Ν 405km
Ενημερώθηκε: 31/03/2020 19:20
Διάσπαρτα Νέφη
Διάσπαρτα Νέφη
 Ανεμοι από άπνοια
Ανεμος: άπνοια
Θερμοκρασία: 18°C
Σημείο Δρόσου: 3°C
Υγρασία: 37%
Βαρόμετρο: 1011 hPa
Νέφωση: Διάσπαρτα Νέφη
Ορατότητα: 10 km
Λεπτομέρειες Νεφών: Διάσπαρτα Νέφη 914 m
2020/03/31 16:20 LGKL 311620Z 00000KT 9999 FEW030 18/03 Q1011
 
LGIR - Iraklion/Crete-Elev 5m
Απόσταση από σταθμό: ΝΝΑ 622km
Ενημερώθηκε: 31/03/2020 19:20
Διάσπαρτα Νέφη
Διάσπαρτα Νέφη
 Ανεμοι από ΒΔ
Ανεμος: ΒΔ 22 km/h
Θερμοκρασία: 16°C
Σημείο Δρόσου: 13°C
Υγρασία: 83%
Βαρόμετρο: 1010 hPa
Νέφωση: Διάσπαρτα Νέφη
Ορατότητα: 10 km
Λεπτομέρειες Νεφών: Διάσπαρτα Νέφη 488 m
2020/03/31 16:20 LGIR 311620Z 31012KT 9999 FEW016 16/13 Q1010 NOSIG
LGRP - Rhodes-Elev 5m
Απόσταση από σταθμό: ΝΑ 649km
Ενημερώθηκε: 31/03/2020 19:20
Μερικώς νεφελώδης
Μερικώς νεφελώδης
 Ανεμοι από ΔΝΔ
Ανεμος: ΔΝΔ 7 km/h
Θερμοκρασία: 16°C
Σημείο Δρόσου: 12°C
Υγρασία: 77%
Βαρόμετρο: 1006 hPa
Νέφωση: Μερικώς νεφελώδης
Ορατότητα: 10 km
Λεπτομέρειες Νεφών: Διάσπαρτα Νέφη 549 m
Μερικώς νεφελώδης 762 m
2020/03/31 16:20 LGRP 311620Z 24004KT 9999 FEW018 SCT025 16/12 Q1006 NOSIG
 
LWOH - Ohrid/FYROM-Elev 761m
Απόσταση από σταθμό: ΔΒΔ 188km
Ενημερώθηκε: 31/03/2020 18:00
ΜΗ Ενημερωμένο METAR!
Ασθενής βροχή, Μερικώς νεφελώδης
Ασθενής βροχή, Μερικώς νεφελώδης
 Ανεμοι από ΝΔ
Ανεμος: ΝΔ 11 km/h
Θερμοκρασία: 8°C
Δείκτης Ψύχρας: 6°C
Σημείο Δρόσου: 3°C
Υγρασία: 71%
Βαρόμετρο: 1012 hPa
Περίληψη: Ασθενής βροχή
Νέφωση: Μερικώς νεφελώδης
Ορατότητα: 10 km
Λεπτομέρειες Νεφών: Μερικώς νεφελώδης 1615 m
2020/03/31 15:00 LWOH 311500Z 22006KT 9999 -RA SCT053 08/03 Q1012
LBSF - Sofia/Bulgaria-Elev 595m
Απόσταση από σταθμό: Β 227km
Ενημερώθηκε: 31/03/2020 19:30
Συννεφιά
Συννεφιά
 Ανεμοι από ΒΒΔ
Ανεμος: ΒΒΔ 7 km/h
Θερμοκρασία: 5°C
Δείκτης Ψύχρας: 3°C
Σημείο Δρόσου: -3°C
Υγρασία: 57%
Βαρόμετρο: 1015 hPa
Νέφωση: Συννεφιά
Ορατότητα: 10 km
Λεπτομέρειες Νεφών: Συννεφιά 1554 m
2020/03/31 16:30 LBSF 311630Z 34004KT 310V020 9999 OVC051 05/M03 Q1015 NOSIG